Fred V. Morrone — WDA8350 — position and weather

sailwx.info

Track history (hours):
 
Tides and Currents Weather Stations Pressure Air Temp Water Temp Dewpoint Dewpoint Depression Visibility Wind Speed Wind Dir Waves Ship Positions

Fred V. Morrone

Owner: PORT IMPERIAL FERRY CORP, WEEHAWKEN, NJ. More information available from US FCC via Universal Licensing System and Coast Guard Vessel Documentation Center.

Last reported at 2017-Oct-10 13:52 UTC. Time now 2017-Oct-20 12:37 UTC.
Position N 40°46' W 074°01'.
Warning: this ship's position is 9 days out of date.

Length 21 m.

Type: Passenger vessel. MMSI: 366853410.

Date/timePositionNaut miles runAvg speedWind from/ knotsBaromVisibWave heightAir tempDewpointWater temp
2017-Oct-10 13:52N 40°46' W 074°01'0 0.1
2017-Oct-10 13:30N 40°46' W 074°01'4 8.8
2017-Oct-10 13:00N 40°42' W 074°01'0 0.7
2017-Oct-10 12:30N 40°42' W 074°00'0 0.0
2017-Oct-10 12:01N 40°42' W 074°00'0 0.0
2017-Oct-10 11:30N 40°42' W 074°00'0 0.1
2017-Oct-10 11:01N 40°42' W 074°00'0 0.1
2017-Oct-10 10:30N 40°42' W 074°00'4 8.3
2017-Oct-10 10:00N 40°46' W 074°01'4 0.4
2017-Oct-10 00:01N 40°42' W 074°01'1 2.1
2017-Oct-09 23:30N 40°43' W 074°02'0 0.3
2017-Oct-09 23:00N 40°43' W 074°03'0 0.0
2017-Oct-09 22:30N 40°43' W 074°03'0 0.0
2017-Oct-09 22:00N 40°43' W 074°03'0 0.0
2017-Oct-09 21:30N 40°43' W 074°03'0 0.2
2017-Oct-09 21:01N 40°43' W 074°03'0 0.1
2017-Oct-09 20:30N 40°43' W 074°03'1 2.2
2017-Oct-09 20:01N 40°43' W 074°02'3 1.4
2017-Oct-09 17:59N 40°46' W 074°01'4 7.7
2017-Oct-09 17:30N 40°43' W 074°02'1 2.4
2017-Oct-09 17:01N 40°42' W 074°00'1 2.5
2017-Oct-09 16:31N 40°43' W 074°02'1 2.5
2017-Oct-09 16:00N 40°42' W 074°00'1 2.8
2017-Oct-09 15:30N 40°43' W 074°02'1 2.8
2017-Oct-09 15:00N 40°42' W 074°00'1 2.5
2017-Oct-09 14:30N 40°43' W 074°02'1 2.5
2017-Oct-09 14:01N 40°42' W 074°00'0 0.0
2017-Oct-09 13:31N 40°42' W 074°00'0 0.0
2017-Oct-09 13:00N 40°42' W 074°00'0 0.0
2017-Oct-09 12:30N 40°42' W 074°00'0 0.0
2017-Oct-09 12:01N 40°42' W 074°00'0 0.0
2017-Oct-09 11:30N 40°42' W 074°00'0 0.0
2017-Oct-09 11:00N 40°42' W 074°00'0 0.1
2017-Oct-09 10:30N 40°42' W 074°00'3 5.9
2017-Oct-09 10:01N 40°45' W 074°01'1 0.2
2017-Oct-09 02:15N 40°46' W 074°01'0 0.0
2017-Oct-07 00:26N 40°46' W 074°01'410.4
2017-Oct-07 00:00N 40°42' W 074°01'1 2.5
2017-Oct-06 23:30N 40°43' W 074°02'0 0.6
2017-Oct-06 23:00N 40°43' W 074°03'0 0.1
2017-Oct-06 22:30N 40°43' W 074°02'0 0.9
2017-Oct-06 22:01N 40°43' W 074°02'0 1.0
2017-Oct-06 21:30N 40°43' W 074°03'0 0.1
2017-Oct-06 21:01N 40°43' W 074°02'0 0.1
2017-Oct-06 20:31N 40°43' W 074°02'0 0.9
2017-Oct-06 20:01N 40°43' W 074°02'4 7.0
2017-Oct-06 19:30N 40°46' W 074°01'4 1.9
2017-Oct-06 17:31N 40°43' W 074°02'1 2.3
2017-Oct-06 17:00N 40°42' W 074°00'1 2.6
2017-Oct-06 16:30N 40°43' W 074°02'1 2.6
2017-Oct-06 16:00N 40°42' W 074°00'1 2.7
2017-Oct-06 15:30N 40°43' W 074°02'1 2.6
2017-Oct-06 15:00N 40°42' W 074°00'1 2.8
2017-Oct-06 14:31N 40°43' W 074°02'1 2.3
2017-Oct-06 14:01N 40°42' W 074°01'1 1.0
2017-Oct-06 13:30N 40°42' W 074°00'0 0.0
2017-Oct-06 13:00N 40°42' W 074°00'0 0.0
2017-Oct-06 12:30N 40°42' W 074°00'0 0.0
2017-Oct-06 12:00N 40°42' W 074°00'0 0.0
2017-Oct-06 11:30N 40°42' W 074°00'0 0.0
2017-Oct-06 11:00N 40°42' W 074°00'0 0.0
2017-Oct-06 10:30N 40°42' W 074°00'2 3.6
2017-Oct-06 10:01N 40°44' W 074°01'3 0.3
2017-Oct-06 00:25N 40°46' W 074°01'410.5
2017-Oct-06 00:00N 40°42' W 074°01'1 2.7
2017-Oct-05 23:30N 40°43' W 074°02'0 0.2
2017-Oct-05 23:00N 40°43' W 074°03'0 0.4
2017-Oct-05 22:30N 40°43' W 074°02'0 0.1
2017-Oct-05 22:00N 40°43' W 074°02'0 0.1
2017-Oct-05 21:30N 40°43' W 074°02'0 0.3
2017-Oct-05 21:00N 40°43' W 074°03'0 0.2
2017-Oct-05 20:30N 40°43' W 074°03'0 0.9
2017-Oct-05 20:00N 40°43' W 074°02'4 7.3
2017-Oct-05 19:30N 40°46' W 074°01'0 0.0
2017-Oct-05 19:00N 40°46' W 074°01'0 0.0
2017-Oct-05 18:29N 40°46' W 074°01'0 0.0
2017-Oct-05 18:00N 40°46' W 074°01'0 0.0
2017-Oct-05 17:30N 40°46' W 074°01'1 0.1
2017-Oct-05 14:00N 40°46' W 074°01'3 7.1
2017-Oct-05 13:30N 40°43' W 074°03'0 0.0
2017-Oct-05 13:00N 40°43' W 074°03'0 0.0
2017-Oct-05 12:30N 40°43' W 074°03'0 0.0
2017-Oct-05 12:00N 40°43' W 074°03'0 0.0
2017-Oct-05 11:30N 40°43' W 074°03'0 0.0
2017-Oct-05 11:00N 40°43' W 074°03'0 0.0
2017-Oct-05 10:30N 40°43' W 074°03'0 0.0
2017-Oct-05 10:00N 40°43' W 074°03'0 0.0
2017-Oct-05 09:30N 40°43' W 074°03'0 0.0
2017-Oct-05 01:55N 40°43' W 074°03'2 5.1
2017-Oct-05 01:30N 40°41' W 074°04'3 5.6
2017-Oct-05 01:01N 40°42' W 074°01'2 5.0
2017-Oct-05 00:30N 40°41' W 074°04'2 4.6
2017-Oct-05 00:00N 40°42' W 074°01'1 1.5
2017-Oct-04 23:30N 40°42' W 074°00'0 0.0
2017-Oct-04 23:00N 40°42' W 074°00'0 0.0
2017-Oct-04 22:30N 40°42' W 074°00'0 0.4
2017-Oct-04 22:00N 40°42' W 074°01'0 0.4
2017-Oct-04 21:30N 40°42' W 074°00'0 0.0
2017-Oct-04 21:00N 40°42' W 074°00'0 0.0
2017-Oct-04 20:30N 40°42' W 074°00'0 0.0
2017-Oct-04 20:00N 40°42' W 074°00'1 2.7
2017-Oct-04 19:30N 40°43' W 074°02'1 2.6
2017-Oct-04 19:00N 40°42' W 074°00'1 2.6
2017-Oct-04 18:30N 40°43' W 074°02'1 2.5
2017-Oct-04 18:00N 40°42' W 074°00'2 4.4
2017-Oct-04 17:31N 40°44' W 074°02'2 3.1
2017-Oct-04 16:47N 40°46' W 074°01'413.0
2017-Oct-04 16:30N 40°43' W 074°02'1 2.7
2017-Oct-04 16:00N 40°42' W 074°00'1 2.8
2017-Oct-04 15:30N 40°43' W 074°02'1 2.9
2017-Oct-04 15:01N 40°42' W 074°00'1 2.8
2017-Oct-04 14:30N 40°43' W 074°02'1 2.7
2017-Oct-04 14:01N 40°42' W 074°00'2 3.5
2017-Oct-04 13:30N 40°43' W 074°03'0 0.1
2017-Oct-04 13:00N 40°43' W 074°03'0 0.0
2017-Oct-04 12:30N 40°43' W 074°03'0 0.0
2017-Oct-04 12:00N 40°43' W 074°03'0 0.0
2017-Oct-04 11:30N 40°43' W 074°03'0 0.0
2017-Oct-04 11:00N 40°43' W 074°03'0 0.0
2017-Oct-04 10:31N 40°43' W 074°03'0 0.0
2017-Oct-04 10:00N 40°43' W 074°03'0 0.0
2017-Oct-04 09:30N 40°43' W 074°03'0 0.0
2017-Oct-04 02:07N 40°43' W 074°02'214.4
2017-Oct-04 02:00N 40°42' W 074°00'3 6.0
2017-Oct-04 01:31N 40°41' W 074°04'2 4.7
2017-Oct-04 01:01N 40°42' W 074°01'2 4.8
2017-Oct-04 00:31N 40°41' W 074°04'3 5.3
2017-Oct-04 00:01N 40°42' W 074°01'0 0.8
2017-Oct-03 23:31N 40°42' W 074°00'0 0.0
2017-Oct-03 23:01N 40°42' W 074°00'0 0.0
2017-Oct-03 22:31N 40°42' W 074°00'0 0.0
2017-Oct-03 22:01N 40°42' W 074°00'0 0.0
2017-Oct-03 21:30N 40°42' W 074°00'0 0.0
2017-Oct-03 21:00N 40°42' W 074°00'0 0.0
2017-Oct-03 20:31N 40°42' W 074°00'0 0.0
2017-Oct-03 20:00N 40°42' W 074°00'1 2.4
2017-Oct-03 19:31N 40°43' W 074°02'1 2.4
2017-Oct-03 19:00N 40°42' W 074°00'1 2.8
2017-Oct-03 18:30N 40°43' W 074°02'1 2.8
2017-Oct-03 18:00N 40°42' W 074°00'2 4.4
2017-Oct-03 17:30N 40°44' W 074°02'1 0.3
2017-Oct-03 14:01N 40°43' W 074°01'1 2.5
2017-Oct-03 13:30N 40°42' W 074°00'0 0.0
2017-Oct-03 13:00N 40°42' W 074°00'0 0.0
2017-Oct-03 12:30N 40°42' W 074°00'0 0.0
2017-Oct-03 12:00N 40°42' W 074°00'0 0.0
2017-Oct-03 11:31N 40°42' W 074°00'0 0.0
2017-Oct-03 11:00N 40°42' W 074°00'0 0.0
2017-Oct-03 10:31N 40°42' W 074°00'4 8.0
2017-Oct-03 10:01N 40°46' W 074°01'0 0.3
2017-Oct-03 09:30N 40°46' W 074°01'0 0.0
2017-Oct-03 09:00N 40°46' W 074°01'0 0.0
2017-Oct-03 08:30N 40°46' W 074°01'0 0.0
2017-Oct-03 00:24N 40°46' W 074°01'410.4
2017-Oct-03 00:00N 40°42' W 074°00'2 3.3
2017-Oct-02 23:30N 40°43' W 074°02'0 0.7
2017-Oct-02 23:01N 40°43' W 074°02'0 0.9
2017-Oct-02 22:31N 40°43' W 074°03'0 0.0
2017-Oct-02 22:00N 40°43' W 074°03'0 0.0
2017-Oct-02 21:30N 40°43' W 074°03'0 0.1
2017-Oct-02 21:00N 40°43' W 074°03'2 4.3
2017-Oct-02 20:31N 40°45' W 074°01'1 0.3
2017-Oct-02 17:55N 40°45' W 074°01'3 6.4
2017-Oct-02 17:30N 40°43' W 074°02'1 2.6
2017-Oct-02 17:00N 40°42' W 074°00'1 2.6
2017-Oct-02 16:31N 40°43' W 074°02'1 2.5
2017-Oct-02 16:00N 40°42' W 074°00'1 2.7
2017-Oct-02 15:30N 40°43' W 074°02'1 2.7
2017-Oct-02 15:00N 40°42' W 074°00'1 2.7
2017-Oct-02 14:30N 40°43' W 074°02'1 2.7
2017-Oct-02 14:00N 40°42' W 074°00'0 0.0
2017-Oct-02 13:30N 40°42' W 074°00'0 0.4
2017-Oct-02 13:00N 40°42' W 074°00'0 0.1
2017-Oct-02 12:30N 40°42' W 074°00'0 0.3
2017-Oct-02 12:01N 40°42' W 074°00'0 0.0
2017-Oct-02 11:31N 40°42' W 074°00'0 0.0
2017-Oct-02 11:00N 40°42' W 074°00'0 0.0
2017-Oct-02 10:31N 40°42' W 074°00'3 5.3
2017-Oct-02 10:00N 40°45' W 074°01'2 0.2
2017-Oct-02 01:53N 40°46' W 074°01'0 0.0
2017-Oct-02 01:30N 40°46' W 074°01'0 0.0
2017-Oct-02 00:37N 40°46' W 074°01'0 0.0
2017-Oct-02 00:30N 40°46' W 074°01'4 8.7
2017-Oct-02 00:01N 40°42' W 074°01'2 3.6
2017-Oct-01 23:30N 40°42' W 074°04'0 0.4
2017-Oct-01 23:00N 40°42' W 074°04'0 0.6
2017-Oct-01 22:30N 40°42' W 074°04'0 0.1
2017-Oct-01 22:00N 40°42' W 074°04'2 4.6
2017-Oct-01 21:30N 40°43' W 074°02'2 3.6
2017-Oct-01 21:00N 40°41' W 074°02'1 2.8
2017-Oct-01 20:30N 40°42' W 074°04'510.3
2017-Oct-01 20:00N 40°46' W 074°01'510.5
2017-Oct-01 19:31N 40°41' W 074°03'2 4.5
2017-Oct-01 19:00N 40°43' W 074°01'2 4.4
2017-Oct-01 18:30N 40°41' W 074°03'2 4.4
2017-Oct-01 18:00N 40°43' W 074°01'2 3.4
2017-Oct-01 17:30N 40°41' W 074°02'2 3.4
2017-Oct-01 17:00N 40°43' W 074°01'1 2.4
2017-Oct-01 16:30N 40°42' W 074°02'1 2.0
2017-Oct-01 16:01N 40°43' W 074°01'1 3.0
2017-Oct-01 15:31N 40°41' W 074°02'1 3.0
2017-Oct-01 15:00N 40°43' W 074°01'2 3.9
2017-Oct-01 14:31N 40°41' W 074°03'2 4.3
2017-Oct-01 14:01N 40°43' W 074°01'2 3.7
2017-Oct-01 13:30N 40°41' W 074°02'2 3.7
2017-Oct-01 13:00N 40°43' W 074°01'3 6.7
2017-Oct-01 12:30N 40°46' W 074°01'0 0.0
2017-Oct-01 06:38N 40°46' W 074°01'0 0.0
2017-Oct-01 06:30N 40°46' W 074°01'0 0.0
2017-Oct-01 06:00N 40°46' W 074°01'0 0.0
2017-Oct-01 05:30N 40°46' W 074°01'0 0.0
2017-Oct-01 05:00N 40°46' W 074°01'0 0.0
2017-Oct-01 04:30N 40°46' W 074°01'0 0.0
2017-Oct-01 04:00N 40°46' W 074°01'0 0.0
2017-Oct-01 03:30N 40°46' W 074°01'0 0.0
2017-Oct-01 03:00N 40°46' W 074°01'  
Track history (hours):
 
Tides and Currents Weather Stations Pressure Air Temp Water Temp Dewpoint Dewpoint Depression Visibility Wind Speed Wind Dir Waves Ship Positions

Fred V. Morrone

Owner: PORT IMPERIAL FERRY CORP, WEEHAWKEN, NJ. More information available from US FCC via Universal Licensing System and Coast Guard Vessel Documentation Center.

Last reported at 2017-Oct-10 13:52 UTC. Time now 2017-Oct-20 12:37 UTC.
Position N 40°46' W 074°01'.
Warning: this ship's position is 9 days out of date.

Length 21 m.

Type: Passenger vessel. MMSI: 366853410.

Date/timePositionNaut miles runAvg speedWind from/ knotsBaromVisibWave heightAir tempDewpointWater temp
2017-Oct-10 13:52N 40°46' W 074°01'0 0.1
2017-Oct-10 13:30N 40°46' W 074°01'4 8.8
2017-Oct-10 13:00N 40°42' W 074°01'0 0.7
2017-Oct-10 12:30N 40°42' W 074°00'0 0.0
2017-Oct-10 12:01N 40°42' W 074°00'0 0.0
2017-Oct-10 11:30N 40°42' W 074°00'0 0.1
2017-Oct-10 11:01N 40°42' W 074°00'0 0.1
2017-Oct-10 10:30N 40°42' W 074°00'4 8.3
2017-Oct-10 10:00N 40°46' W 074°01'4 0.4
2017-Oct-10 00:01N 40°42' W 074°01'1 2.1
2017-Oct-09 23:30N 40°43' W 074°02'0 0.3
2017-Oct-09 23:00N 40°43' W 074°03'0 0.0
2017-Oct-09 22:30N 40°43' W 074°03'0 0.0
2017-Oct-09 22:00N 40°43' W 074°03'0 0.0
2017-Oct-09 21:30N 40°43' W 074°03'0 0.2
2017-Oct-09 21:01N 40°43' W 074°03'0 0.1
2017-Oct-09 20:30N 40°43' W 074°03'1 2.2
2017-Oct-09 20:01N 40°43' W 074°02'3 1.4
2017-Oct-09 17:59N 40°46' W 074°01'4 7.7
2017-Oct-09 17:30N 40°43' W 074°02'1 2.4
2017-Oct-09 17:01N 40°42' W 074°00'1 2.5
2017-Oct-09 16:31N 40°43' W 074°02'1 2.5
2017-Oct-09 16:00N 40°42' W 074°00'1 2.8
2017-Oct-09 15:30N 40°43' W 074°02'1 2.8
2017-Oct-09 15:00N 40°42' W 074°00'1 2.5
2017-Oct-09 14:30N 40°43' W 074°02'1 2.5
2017-Oct-09 14:01N 40°42' W 074°00'0 0.0
2017-Oct-09 13:31N 40°42' W 074°00'0 0.0
2017-Oct-09 13:00N 40°42' W 074°00'0 0.0
2017-Oct-09 12:30N 40°42' W 074°00'0 0.0
2017-Oct-09 12:01N 40°42' W 074°00'0 0.0
2017-Oct-09 11:30N 40°42' W 074°00'0 0.0
2017-Oct-09 11:00N 40°42' W 074°00'0 0.1
2017-Oct-09 10:30N 40°42' W 074°00'3 5.9
2017-Oct-09 10:01N 40°45' W 074°01'1 0.2
2017-Oct-09 02:15N 40°46' W 074°01'0 0.0
2017-Oct-07 00:26N 40°46' W 074°01'410.4
2017-Oct-07 00:00N 40°42' W 074°01'1 2.5
2017-Oct-06 23:30N 40°43' W 074°02'0 0.6
2017-Oct-06 23:00N 40°43' W 074°03'0 0.1
2017-Oct-06 22:30N 40°43' W 074°02'0 0.9
2017-Oct-06 22:01N 40°43' W 074°02'0 1.0
2017-Oct-06 21:30N 40°43' W 074°03'0 0.1
2017-Oct-06 21:01N 40°43' W 074°02'0 0.1
2017-Oct-06 20:31N 40°43' W 074°02'0 0.9
2017-Oct-06 20:01N 40°43' W 074°02'4 7.0
2017-Oct-06 19:30N 40°46' W 074°01'4 1.9
2017-Oct-06 17:31N 40°43' W 074°02'1 2.3
2017-Oct-06 17:00N 40°42' W 074°00'1 2.6
2017-Oct-06 16:30N 40°43' W 074°02'1 2.6
2017-Oct-06 16:00N 40°42' W 074°00'1 2.7
2017-Oct-06 15:30N 40°43' W 074°02'1 2.6
2017-Oct-06 15:00N 40°42' W 074°00'1 2.8
2017-Oct-06 14:31N 40°43' W 074°02'1 2.3
2017-Oct-06 14:01N 40°42' W 074°01'1 1.0
2017-Oct-06 13:30N 40°42' W 074°00'0 0.0
2017-Oct-06 13:00N 40°42' W 074°00'0 0.0
2017-Oct-06 12:30N 40°42' W 074°00'0 0.0
2017-Oct-06 12:00N 40°42' W 074°00'0 0.0
2017-Oct-06 11:30N 40°42' W 074°00'0 0.0
2017-Oct-06 11:00N 40°42' W 074°00'0 0.0
2017-Oct-06 10:30N 40°42' W 074°00'2 3.6
2017-Oct-06 10:01N 40°44' W 074°01'3 0.3
2017-Oct-06 00:25N 40°46' W 074°01'410.5
2017-Oct-06 00:00N 40°42' W 074°01'1 2.7
2017-Oct-05 23:30N 40°43' W 074°02'0 0.2
2017-Oct-05 23:00N 40°43' W 074°03'0 0.4
2017-Oct-05 22:30N 40°43' W 074°02'0 0.1
2017-Oct-05 22:00N 40°43' W 074°02'0 0.1
2017-Oct-05 21:30N 40°43' W 074°02'0 0.3
2017-Oct-05 21:00N 40°43' W 074°03'0 0.2
2017-Oct-05 20:30N 40°43' W 074°03'0 0.9
2017-Oct-05 20:00N 40°43' W 074°02'4 7.3
2017-Oct-05 19:30N 40°46' W 074°01'0 0.0
2017-Oct-05 19:00N 40°46' W 074°01'0 0.0
2017-Oct-05 18:29N 40°46' W 074°01'0 0.0
2017-Oct-05 18:00N 40°46' W 074°01'0 0.0
2017-Oct-05 17:30N 40°46' W 074°01'1 0.1
2017-Oct-05 14:00N 40°46' W 074°01'3 7.1
2017-Oct-05 13:30N 40°43' W 074°03'0 0.0
2017-Oct-05 13:00N 40°43' W 074°03'0 0.0
2017-Oct-05 12:30N 40°43' W 074°03'0 0.0
2017-Oct-05 12:00N 40°43' W 074°03'0 0.0
2017-Oct-05 11:30N 40°43' W 074°03'0 0.0
2017-Oct-05 11:00N 40°43' W 074°03'0 0.0
2017-Oct-05 10:30N 40°43' W 074°03'0 0.0
2017-Oct-05 10:00N 40°43' W 074°03'0 0.0
2017-Oct-05 09:30N 40°43' W 074°03'0 0.0
2017-Oct-05 01:55N 40°43' W 074°03'2 5.1
2017-Oct-05 01:30N 40°41' W 074°04'3 5.6
2017-Oct-05 01:01N 40°42' W 074°01'2 5.0
2017-Oct-05 00:30N 40°41' W 074°04'2 4.6
2017-Oct-05 00:00N 40°42' W 074°01'1 1.5
2017-Oct-04 23:30N 40°42' W 074°00'0 0.0
2017-Oct-04 23:00N 40°42' W 074°00'0 0.0
2017-Oct-04 22:30N 40°42' W 074°00'0 0.4
2017-Oct-04 22:00N 40°42' W 074°01'0 0.4
2017-Oct-04 21:30N 40°42' W 074°00'0 0.0
2017-Oct-04 21:00N 40°42' W 074°00'0 0.0
2017-Oct-04 20:30N 40°42' W 074°00'0 0.0
2017-Oct-04 20:00N 40°42' W 074°00'1 2.7
2017-Oct-04 19:30N 40°43' W 074°02'1 2.6
2017-Oct-04 19:00N 40°42' W 074°00'1 2.6
2017-Oct-04 18:30N 40°43' W 074°02'1 2.5
2017-Oct-04 18:00N 40°42' W 074°00'2 4.4
2017-Oct-04 17:31N 40°44' W 074°02'2 3.1
2017-Oct-04 16:47N 40°46' W 074°01'413.0
2017-Oct-04 16:30N 40°43' W 074°02'1 2.7
2017-Oct-04 16:00N 40°42' W 074°00'1 2.8
2017-Oct-04 15:30N 40°43' W 074°02'1 2.9
2017-Oct-04 15:01N 40°42' W 074°00'1 2.8
2017-Oct-04 14:30N 40°43' W 074°02'1 2.7
2017-Oct-04 14:01N 40°42' W 074°00'2 3.5
2017-Oct-04 13:30N 40°43' W 074°03'0 0.1
2017-Oct-04 13:00N 40°43' W 074°03'0 0.0
2017-Oct-04 12:30N 40°43' W 074°03'0 0.0
2017-Oct-04 12:00N 40°43' W 074°03'0 0.0
2017-Oct-04 11:30N 40°43' W 074°03'0 0.0
2017-Oct-04 11:00N 40°43' W 074°03'0 0.0
2017-Oct-04 10:31N 40°43' W 074°03'0 0.0
2017-Oct-04 10:00N 40°43' W 074°03'0 0.0
2017-Oct-04 09:30N 40°43' W 074°03'0 0.0
2017-Oct-04 02:07N 40°43' W 074°02'214.4
2017-Oct-04 02:00N 40°42' W 074°00'3 6.0
2017-Oct-04 01:31N 40°41' W 074°04'2 4.7
2017-Oct-04 01:01N 40°42' W 074°01'2 4.8
2017-Oct-04 00:31N 40°41' W 074°04'3 5.3
2017-Oct-04 00:01N 40°42' W 074°01'0 0.8
2017-Oct-03 23:31N 40°42' W 074°00'0 0.0
2017-Oct-03 23:01N 40°42' W 074°00'0 0.0
2017-Oct-03 22:31N 40°42' W 074°00'0 0.0
2017-Oct-03 22:01N 40°42' W 074°00'0 0.0
2017-Oct-03 21:30N 40°42' W 074°00'0 0.0
2017-Oct-03 21:00N 40°42' W 074°00'0 0.0
2017-Oct-03 20:31N 40°42' W 074°00'0 0.0
2017-Oct-03 20:00N 40°42' W 074°00'1 2.4
2017-Oct-03 19:31N 40°43' W 074°02'1 2.4
2017-Oct-03 19:00N 40°42' W 074°00'1 2.8
2017-Oct-03 18:30N 40°43' W 074°02'1 2.8
2017-Oct-03 18:00N 40°42' W 074°00'2 4.4
2017-Oct-03 17:30N 40°44' W 074°02'1 0.3
2017-Oct-03 14:01N 40°43' W 074°01'1 2.5
2017-Oct-03 13:30N 40°42' W 074°00'0 0.0
2017-Oct-03 13:00N 40°42' W 074°00'0 0.0
2017-Oct-03 12:30N 40°42' W 074°00'0 0.0
2017-Oct-03 12:00N 40°42' W 074°00'0 0.0
2017-Oct-03 11:31N 40°42' W 074°00'0 0.0
2017-Oct-03 11:00N 40°42' W 074°00'0 0.0
2017-Oct-03 10:31N 40°42' W 074°00'4 8.0
2017-Oct-03 10:01N 40°46' W 074°01'0 0.3
2017-Oct-03 09:30N 40°46' W 074°01'0 0.0
2017-Oct-03 09:00N 40°46' W 074°01'0 0.0
2017-Oct-03 08:30N 40°46' W 074°01'0 0.0
2017-Oct-03 00:24N 40°46' W 074°01'410.4
2017-Oct-03 00:00N 40°42' W 074°00'2 3.3
2017-Oct-02 23:30N 40°43' W 074°02'0 0.7
2017-Oct-02 23:01N 40°43' W 074°02'0 0.9
2017-Oct-02 22:31N 40°43' W 074°03'0 0.0
2017-Oct-02 22:00N 40°43' W 074°03'0 0.0
2017-Oct-02 21:30N 40°43' W 074°03'0 0.1
2017-Oct-02 21:00N 40°43' W 074°03'2 4.3
2017-Oct-02 20:31N 40°45' W 074°01'1 0.3
2017-Oct-02 17:55N 40°45' W 074°01'3 6.4
2017-Oct-02 17:30N 40°43' W 074°02'1 2.6
2017-Oct-02 17:00N 40°42' W 074°00'1 2.6
2017-Oct-02 16:31N 40°43' W 074°02'1 2.5
2017-Oct-02 16:00N 40°42' W 074°00'1 2.7
2017-Oct-02 15:30N 40°43' W 074°02'1 2.7
2017-Oct-02 15:00N 40°42' W 074°00'1 2.7
2017-Oct-02 14:30N 40°43' W 074°02'1 2.7
2017-Oct-02 14:00N 40°42' W 074°00'0 0.0
2017-Oct-02 13:30N 40°42' W 074°00'0 0.4
2017-Oct-02 13:00N 40°42' W 074°00'0 0.1
2017-Oct-02 12:30N 40°42' W 074°00'0 0.3
2017-Oct-02 12:01N 40°42' W 074°00'0 0.0
2017-Oct-02 11:31N 40°42' W 074°00'0 0.0
2017-Oct-02 11:00N 40°42' W 074°00'0 0.0
2017-Oct-02 10:31N 40°42' W 074°00'3 5.3
2017-Oct-02 10:00N 40°45' W 074°01'2 0.2
2017-Oct-02 01:53N 40°46' W 074°01'0 0.0
2017-Oct-02 01:30N 40°46' W 074°01'0 0.0
2017-Oct-02 00:37N 40°46' W 074°01'0 0.0
2017-Oct-02 00:30N 40°46' W 074°01'4 8.7
2017-Oct-02 00:01N 40°42' W 074°01'2 3.6
2017-Oct-01 23:30N 40°42' W 074°04'0 0.4
2017-Oct-01 23:00N 40°42' W 074°04'0 0.6
2017-Oct-01 22:30N 40°42' W 074°04'0 0.1
2017-Oct-01 22:00N 40°42' W 074°04'2 4.6
2017-Oct-01 21:30N 40°43' W 074°02'2 3.6
2017-Oct-01 21:00N 40°41' W 074°02'1 2.8
2017-Oct-01 20:30N 40°42' W 074°04'510.3
2017-Oct-01 20:00N 40°46' W 074°01'510.5
2017-Oct-01 19:31N 40°41' W 074°03'2 4.5
2017-Oct-01 19:00N 40°43' W 074°01'2 4.4
2017-Oct-01 18:30N 40°41' W 074°03'2 4.4
2017-Oct-01 18:00N 40°43' W 074°01'2 3.4
2017-Oct-01 17:30N 40°41' W 074°02'2 3.4
2017-Oct-01 17:00N 40°43' W 074°01'1 2.4
2017-Oct-01 16:30N 40°42' W 074°02'1 2.0
2017-Oct-01 16:01N 40°43' W 074°01'1 3.0
2017-Oct-01 15:31N 40°41' W 074°02'1 3.0
2017-Oct-01 15:00N 40°43' W 074°01'2 3.9
2017-Oct-01 14:31N 40°41' W 074°03'2 4.3
2017-Oct-01 14:01N 40°43' W 074°01'2 3.7
2017-Oct-01 13:30N 40°41' W 074°02'2 3.7
2017-Oct-01 13:00N 40°43' W 074°01'3 6.7
2017-Oct-01 12:30N 40°46' W 074°01'0 0.0
2017-Oct-01 06:38N 40°46' W 074°01'0 0.0
2017-Oct-01 06:30N 40°46' W 074°01'0 0.0
2017-Oct-01 06:00N 40°46' W 074°01'0 0.0
2017-Oct-01 05:30N 40°46' W 074°01'0 0.0
2017-Oct-01 05:00N 40°46' W 074°01'0 0.0
2017-Oct-01 04:30N 40°46' W 074°01'0 0.0
2017-Oct-01 04:00N 40°46' W 074°01'0 0.0
2017-Oct-01 03:30N 40°46' W 074°01'0 0.0
2017-Oct-01 03:00N 40°46' W 074°01'  

Dump ship's entire track history